Pocasset, Oklahoma
Current Conditions -  °F | °C
As of 2:15 AM on Friday 24 Oct 2014 (Local Time) from KRCE Reporting Station
NA  
Wind Chill: 59°   Ceiling: NA
Heat Index: 59°   Visibility: NA
Dew Point: 59°   Wind: 9mph
Humidity: 100%   Direction: 190°S
Pressure: 30.11"   Gusts: NA
Location:  35.19°N, 97.95°W
Report Text: KRCE 240715Z AUTO 19008KT 15/15 A3011 RMK AO2
Loading
Personal Weather Stations






























Interactive Weather Map
Tropical Storm Tracking
New forecast layout! Learn more

10-Day Weather Forecast

Advertisements
Track Severe Weather on mobile